Aviation Digital Data Service (ADDS)

Output produced by METARs form (1710 UTC 03 September 2015)
found at http://aviationweather.gov/adds/metars/
 
KAVL 031131Z 0312/0412 32004KT P6SM BKN100 
     FM031500 34008KT P6SM SCT060 BKN120 
     FM040100 34004KT P6SM FEW080 BKN200 
     FM040900 34003KT 3SM BR FEW010 SCT150